Time;durP1;ratioP1;P1;durP2;ratioP2;P2;SDS_P1;SDS_P2;PMS_P1;PMS_P2;Temp;Humidity;BMP_temperature;BMP_pressure;BME280_temperature;BME280_humidity;BME280_pressure;Samples;Min_cycle;Max_cycle;Signal;HPM_P1;HPM_P2
2021/09/16 00:02:29;;;;;;;14.40;10.80;;;;;;;16.22;81.48;96463.87;113921;1212;30438;-84
2021/09/16 00:05:05;;;;;;;12.00;9.80;;;;;;;16.29;81.42;96459.71;113942;1211;33163;-83
2021/09/16 00:07:36;;;;;;;12.80;10.90;;;;;;;16.34;81.47;96458.61;113871;1207;35914;-82
2021/09/16 00:10:08;;;;;;;13.60;10.40;;;;;;;16.41;81.41;96455.82;113857;1212;28563;-82
2021/09/16 00:12:39;;;;;;;14.40;11.20;;;;;;;16.44;81.23;96456.27;113937;1205;26076;-82
2021/09/16 00:15:13;;;;;;;12.30;10.40;;;;;;;16.48;81.14;96457.66;114013;1204;26449;-83
2021/09/16 00:17:44;;;;;;;14.80;10.50;;;;;;;16.51;81.12;96454.45;113935;1204;27406;-82
2021/09/16 00:20:16;;;;;;;15.20;11.20;;;;;;;16.58;81.25;96456.17;113854;1201;31914;-83
2021/09/16 00:22:46;;;;;;;13.60;10.70;;;;;;;16.63;81.09;96455.70;113869;1207;29582;-82
2021/09/16 00:25:17;;;;;;;15.10;10.90;;;;;;;16.66;80.96;96458.94;114036;1204;35856;-82
2021/09/16 00:27:48;;;;;;;13.70;11.10;;;;;;;16.69;80.86;96456.45;113911;1205;26636;-82
2021/09/16 00:30:19;;;;;;;12.60;10.70;;;;;;;16.71;80.84;96458.23;113943;1204;35811;-82
2021/09/16 00:32:50;;;;;;;14.30;11.40;;;;;;;16.72;80.74;96456.59;113941;1198;27863;-82
2021/09/16 00:35:21;;;;;;;12.50;10.40;;;;;;;16.73;80.70;96458.09;113974;1204;26399;-81
2021/09/16 00:37:52;;;;;;;12.20;10.20;;;;;;;16.72;80.71;96455.77;113873;1212;27062;-82
2021/09/16 00:40:24;;;;;;;15.30;10.90;;;;;;;16.74;80.74;96453.25;113817;1204;63649;-81
2021/09/16 00:42:55;;;;;;;13.10;10.80;;;;;;;16.78;80.71;96452.49;111474;1200;1595906;-81
2021/09/16 00:45:27;;;;;;;13.90;11.20;;;;;;;16.80;80.67;96450.66;113781;1205;67012;-81
2021/09/16 00:47:58;;;;;;;14.30;10.40;;;;;;;16.82;80.49;96454.86;112362;1204;1845457;-82
2021/09/16 00:50:30;;;;;;;13.50;10.60;;;;;;;16.84;80.41;96458.75;111916;1209;2618455;-84
2021/09/16 00:53:01;;;;;;;14.80;10.80;;;;;;;16.85;80.43;96458.02;113987;1204;48617;-82
2021/09/16 00:55:34;;;;;;;12.00;10.30;;;;;;;16.83;80.29;96456.65;114018;1200;50245;-82
2021/09/16 00:58:06;;;;;;;13.20;10.40;;;;;;;16.83;80.17;96455.61;113944;1209;53545;-82
2021/09/16 01:00:38;;;;;;;11.70;9.70;;;;;;;16.84;80.10;96459.98;113877;1210;56801;-82
2021/09/16 01:03:09;;;;;;;12.50;10.00;;;;;;;16.83;80.09;96458.82;113949;1209;57359;-82
2021/09/16 01:05:40;;;;;;;12.00;10.10;;;;;;;16.80;80.00;96456.70;113961;1205;28181;-82
2021/09/16 01:08:11;;;;;;;12.70;10.20;;;;;;;16.79;80.00;96457.52;113898;1200;52953;-82
2021/09/16 01:10:42;;;;;;;11.20;9.50;;;;;;;16.79;80.13;96457.67;113953;1204;27490;-82
2021/09/16 01:13:14;;;;;;;14.60;10.50;;;;;;;16.81;80.02;96454.05;113990;1208;25874;-83
2021/09/16 01:15:46;;;;;;;12.60;10.40;;;;;;;16.82;80.03;96454.42;113893;1204;62347;-82
2021/09/16 01:18:17;;;;;;;11.10;9.30;;;;;;;16.83;79.99;96452.37;113899;1207;50854;-82
2021/09/16 01:20:47;;;;;;;12.40;10.20;;;;;;;16.83;79.89;96449.77;113914;1205;58840;-82
2021/09/16 01:23:18;;;;;;;12.70;10.10;;;;;;;16.80;79.70;96447.38;113937;1204;43942;-82
2021/09/16 01:25:50;;;;;;;12.50;10.40;;;;;;;16.80;79.80;96446.05;113908;1209;78174;-82
2021/09/16 01:28:28;;;;;;;11.70;9.60;;;;;;;16.80;79.83;96445.09;113865;1205;75883;-82
2021/09/16 01:30:59;;;;;;;13.60;10.30;;;;;;;16.78;79.69;96446.91;113919;1204;59181;-81
2021/09/16 01:33:30;;;;;;;10.90;9.60;;;;;;;16.71;79.64;96447.46;114047;1209;31185;-82
2021/09/16 01:36:01;;;;;;;13.20;9.80;;;;;;;16.70;79.63;96441.46;114007;1210;48035;-82
2021/09/16 01:38:32;;;;;;;12.10;9.50;;;;;;;16.73;79.63;96441.95;113973;1205;68533;-82
2021/09/16 01:41:06;;;;;;;12.70;9.90;;;;;;;16.75;79.59;96438.83;114009;1205;58719;-82
2021/09/16 01:43:37;;;;;;;13.40;9.50;;;;;;;16.77;79.57;96438.67;113918;1207;53169;-82
2021/09/16 01:46:09;;;;;;;13.90;10.00;;;;;;;16.81;79.57;96434.70;113882;1205;68491;-82
2021/09/16 01:48:39;;;;;;;12.40;9.60;;;;;;;16.87;79.47;96433.70;113963;1205;72096;-82
2021/09/16 01:51:10;;;;;;;16.20;9.90;;;;;;;16.91;79.28;96435.05;113868;1205;54597;-81
2021/09/16 01:53:42;;;;;;;13.50;9.10;;;;;;;16.96;79.10;96426.66;113947;1209;47266;-82
2021/09/16 01:56:13;;;;;;;12.40;9.60;;;;;;;17.02;78.93;96431.56;113852;1205;65835;-82
2021/09/16 01:58:45;;;;;;;12.10;9.20;;;;;;;17.06;78.66;96427.96;113862;1209;59696;-83
2021/09/16 02:01:16;;;;;;;12.00;9.80;;;;;;;17.07;78.60;96424.72;113872;1205;67906;-82
2021/09/16 02:03:47;;;;;;;11.00;9.00;;;;;;;17.08;78.50;96422.91;113900;1212;74105;-82
2021/09/16 02:06:18;;;;;;;12.10;10.10;;;;;;;17.09;78.47;96422.71;113863;1205;86619;-82
2021/09/16 02:08:49;;;;;;;11.70;9.40;;;;;;;17.07;78.42;96419.36;113862;1206;61220;-83
2021/09/16 02:11:20;;;;;;;10.60;9.20;;;;;;;17.04;78.42;96422.74;113800;1205;54764;-83
2021/09/16 02:13:51;;;;;;;14.00;9.20;;;;;;;16.96;78.44;96424.42;113833;1206;56698;-82
2021/09/16 02:16:23;;;;;;;12.40;8.80;;;;;;;16.90;78.59;96420.72;113807;1208;71113;-83
2021/09/16 02:18:54;;;;;;;12.20;9.50;;;;;;;16.86;78.68;96422.45;112367;1211;1989694;-82
2021/09/16 02:21:25;;;;;;;11.20;8.80;;;;;;;16.80;78.78;96422.36;113854;1206;29686;-82
2021/09/16 02:23:56;;;;;;;11.80;8.80;;;;;;;16.77;78.95;96423.94;113965;1210;52769;-83
2021/09/16 02:26:27;;;;;;;11.00;8.50;;;;;;;16.73;79.07;96420.55;113923;1204;55372;-84
2021/09/16 02:28:58;;;;;;;10.80;8.90;;;;;;;16.73;79.24;96419.39;113920;1205;55087;-83
2021/09/16 02:31:29;;;;;;;12.80;8.50;;;;;;;16.73;79.30;96421.21;113908;1200;83446;-81
2021/09/16 02:34:00;;;;;;;12.10;8.70;;;;;;;16.73;79.33;96422.05;114060;1205;52104;-83
2021/09/16 02:36:31;;;;;;;11.30;8.00;;;;;;;16.72;79.40;96418.14;113968;1212;53004;-82
2021/09/16 02:39:05;;;;;;;10.50;8.30;;;;;;;16.72;79.46;96420.50;113981;1200;64044;-82
2021/09/16 02:41:36;;;;;;;10.60;8.70;;;;;;;16.74;79.49;96421.24;113873;1205;59055;-83
2021/09/16 02:44:07;;;;;;;10.00;8.10;;;;;;;16.74;79.51;96421.02;114001;1205;32847;-83
2021/09/16 02:46:38;;;;;;;12.40;9.90;;;;;;;16.71;79.49;96420.46;113983;1209;26545;-83
2021/09/16 02:49:10;;;;;;;11.50;8.70;;;;;;;16.66;79.58;96415.32;113948;1205;54462;-83
2021/09/16 02:51:41;;;;;;;11.80;9.40;;;;;;;16.63;79.57;96416.55;113916;1201;75767;-82
2021/09/16 02:54:12;;;;;;;13.50;9.40;;;;;;;16.65;79.70;96415.16;113958;1209;52749;-82
2021/09/16 02:56:43;;;;;;;11.90;9.00;;;;;;;16.66;79.63;96413.74;112891;1201;1202873;-82
2021/09/16 02:59:15;;;;;;;12.10;9.60;;;;;;;16.68;79.50;96408.02;112243;1203;1925187;-82
2021/09/16 03:01:46;;;;;;;11.70;9.40;;;;;;;16.70;79.48;96405.52;113902;1205;67152;-81
2021/09/16 03:04:17;;;;;;;11.40;9.70;;;;;;;16.72;79.48;96407.59;113941;1200;45504;-82
2021/09/16 03:06:48;;;;;;;12.70;10.00;;;;;;;16.73;79.32;96408.52;114053;1208;30704;-82
2021/09/16 03:09:19;;;;;;;11.70;8.80;;;;;;;16.76;79.26;96408.13;113948;1205;25725;-82
2021/09/16 03:11:49;;;;;;;11.00;9.00;;;;;;;16.78;79.09;96411.89;113973;1207;56003;-81
2021/09/16 03:14:20;;;;;;;12.80;9.90;;;;;;;16.81;79.03;96413.35;113954;1209;52181;-82
2021/09/16 03:16:51;;;;;;;13.50;9.00;;;;;;;16.82;78.95;96412.02;113982;1205;26173;-82
2021/09/16 03:19:22;;;;;;;12.70;9.40;;;;;;;16.84;78.88;96412.11;113869;1205;70641;-82
2021/09/16 03:21:53;;;;;;;11.50;9.10;;;;;;;16.86;78.77;96414.64;113833;1212;73946;-81
2021/09/16 03:24:24;;;;;;;10.70;8.10;;;;;;;16.88;78.61;96416.33;113798;1205;81178;-81
2021/09/16 03:26:55;;;;;;;13.00;9.50;;;;;;;16.91;78.46;96407.20;113947;1205;44556;-81
2021/09/16 03:29:26;;;;;;;10.80;8.60;;;;;;;16.95;78.38;96410.39;113935;1209;55461;-82
2021/09/16 03:31:57;;;;;;;11.10;8.80;;;;;;;16.97;78.33;96411.46;113924;1210;57624;-81
2021/09/16 03:34:28;;;;;;;13.20;8.80;;;;;;;17.00;78.12;96413.72;113975;1205;54299;-81
2021/09/16 03:36:59;;;;;;;10.10;8.70;;;;;;;17.02;78.02;96412.67;113884;1205;47770;-81
2021/09/16 03:39:30;;;;;;;10.60;8.80;;;;;;;17.04;77.97;96410.06;112482;1205;1841578;-80
2021/09/16 03:42:01;;;;;;;11.70;8.80;;;;;;;17.06;77.80;96410.30;113959;1205;50540;-81
2021/09/16 03:44:32;;;;;;;11.50;8.90;;;;;;;17.10;77.68;96409.98;113982;1205;59941;-83
2021/09/16 03:47:03;;;;;;;11.50;8.80;;;;;;;17.13;77.59;96408.10;114047;1209;55931;-83
2021/09/16 03:49:38;;;;;;;9.40;7.90;;;;;;;17.15;77.46;96407.10;113939;1201;59790;-83
2021/09/16 03:52:10;;;;;;;9.80;8.10;;;;;;;17.16;77.42;96403.84;113919;1209;55772;-82
2021/09/16 03:54:41;;;;;;;10.20;8.30;;;;;;;17.17;77.33;96403.65;113990;1205;28607;-82
2021/09/16 03:57:12;;;;;;;10.30;8.20;;;;;;;17.16;77.29;96402.08;113983;1205;40684;-82
2021/09/16 03:59:43;;;;;;;10.10;8.20;;;;;;;17.14;77.28;96398.04;113978;1205;29417;-82
2021/09/16 04:02:15;;;;;;;13.00;8.50;;;;;;;17.13;77.15;96398.77;113964;1205;26484;-82
2021/09/16 04:04:45;;;;;;;11.60;8.30;;;;;;;17.14;77.18;96402.41;113976;1204;37053;-84
2021/09/16 04:07:16;;;;;;;10.70;8.50;;;;;;;17.16;77.11;96403.25;114020;1209;27001;-83
2021/09/16 04:09:47;;;;;;;9.80;7.80;;;;;;;17.18;77.00;96398.59;114020;1205;26409;-83
2021/09/16 04:12:18;;;;;;;11.30;8.40;;;;;;;17.22;76.83;96397.11;113957;1209;30162;-83
2021/09/16 04:14:49;;;;;;;10.30;8.30;;;;;;;17.27;76.69;96392.91;113999;1209;27153;-82
2021/09/16 04:17:20;;;;;;;10.00;7.90;;;;;;;17.29;76.58;96391.25;113983;1205;28883;-82
2021/09/16 04:19:51;;;;;;;9.30;7.80;;;;;;;17.32;76.42;96395.81;113959;1210;26104;-82
2021/09/16 04:22:22;;;;;;;10.90;8.20;;;;;;;17.34;76.24;96393.30;113983;1208;27483;-82
2021/09/16 04:24:53;;;;;;;11.80;8.60;;;;;;;17.39;76.05;96395.45;113987;1212;35096;-82
2021/09/16 04:27:23;;;;;;;13.10;9.00;;;;;;;17.42;76.07;96394.63;114021;1205;26329;-82
2021/09/16 04:29:54;;;;;;;11.60;8.10;;;;;;;17.45;75.81;96399.43;113949;1205;26629;-82
2021/09/16 04:32:25;;;;;;;10.10;7.80;;;;;;;17.49;75.68;96395.81;113821;1205;31184;-82
2021/09/16 04:34:58;;;;;;;8.90;7.90;;;;;;;17.53;75.50;96399.72;113979;1208;28092;-82
2021/09/16 04:37:29;;;;;;;11.20;8.50;;;;;;;17.55;75.37;96403.70;113959;1212;26190;-82
2021/09/16 04:40:00;;;;;;;9.60;7.30;;;;;;;17.56;75.45;96407.41;114020;1209;25809;-82
2021/09/16 04:42:31;;;;;;;10.00;7.80;;;;;;;17.57;75.23;96410.90;114056;1205;27744;-81
2021/09/16 04:45:03;;;;;;;10.20;8.60;;;;;;;17.61;75.16;96405.27;114003;1204;41450;-82
2021/09/16 04:47:34;;;;;;;11.60;8.50;;;;;;;17.65;74.85;96407.07;114060;1205;31354;-82
2021/09/16 04:50:06;;;;;;;10.20;7.90;;;;;;;17.72;74.82;96411.01;114025;1206;29909;-82
2021/09/16 04:52:37;;;;;;;10.10;8.10;;;;;;;17.78;74.48;96407.78;113945;1205;27624;-82
2021/09/16 04:55:09;;;;;;;11.90;7.60;;;;;;;17.84;74.33;96408.02;113975;1200;30153;-82
2021/09/16 04:57:40;;;;;;;11.40;8.40;;;;;;;17.90;74.05;96408.34;113998;1209;27892;-83
2021/09/16 05:00:13;;;;;;;9.50;8.00;;;;;;;17.97;73.97;96407.59;114009;1205;27315;-82
2021/09/16 05:02:44;;;;;;;10.20;8.20;;;;;;;18.04;73.86;96406.52;113777;1206;62657;-81
2021/09/16 05:05:15;;;;;;;10.00;7.40;;;;;;;18.10;73.60;96404.84;113970;1205;27899;-82
2021/09/16 05:07:46;;;;;;;10.10;8.10;;;;;;;18.18;73.17;96404.71;113972;1209;27421;-83
2021/09/16 05:10:17;;;;;;;9.90;7.90;;;;;;;18.26;73.17;96404.42;113859;1205;43349;-82
2021/09/16 05:12:48;;;;;;;9.10;7.40;;;;;;;18.32;72.93;96408.13;114045;1205;26666;-82
2021/09/16 05:15:19;;;;;;;9.40;8.20;;;;;;;18.41;72.73;96410.61;114020;1212;28742;-82
2021/09/16 05:17:50;;;;;;;11.10;7.40;;;;;;;18.55;72.40;96413.92;113934;1205;28036;-82
2021/09/16 05:20:22;;;;;;;9.60;7.40;;;;;;;18.68;72.24;96416.73;113819;1205;27941;-82
2021/09/16 05:22:53;;;;;;;9.60;7.70;;;;;;;18.75;71.67;96421.98;113965;1210;31590;-82
2021/09/16 05:25:24;;;;;;;8.90;7.50;;;;;;;18.75;71.64;96422.64;113979;1207;25875;-83
2021/09/16 05:27:55;;;;;;;8.60;7.30;;;;;;;18.71;71.51;96422.89;113848;1206;28048;-81
2021/09/16 05:30:26;;;;;;;9.80;7.90;;;;;;;18.64;71.44;96423.91;113828;1204;28635;-82
2021/09/16 05:32:57;;;;;;;10.60;7.80;;;;;;;18.61;71.32;96423.56;114006;1205;27283;-83
2021/09/16 05:35:28;;;;;;;12.00;7.60;;;;;;;18.59;71.46;96423.05;113995;1205;28135;-82
2021/09/16 05:38:00;;;;;;;9.10;7.60;;;;;;;18.56;71.37;96426.67;113995;1205;32416;-83
2021/09/16 05:40:30;;;;;;;9.70;7.60;;;;;;;18.54;71.56;96427.67;114049;1206;39339;-82
2021/09/16 05:43:01;;;;;;;10.20;7.70;;;;;;;18.54;71.49;96429.36;113841;1205;64908;-83
2021/09/16 05:45:34;;;;;;;12.10;7.50;;;;;;;18.54;71.48;96428.30;113877;1206;50569;-82
2021/09/16 05:48:06;;;;;;;9.70;7.40;;;;;;;18.57;71.92;96427.79;113990;1200;37440;-80
2021/09/16 05:50:38;;;;;;;10.20;7.60;;;;;;;18.61;71.88;96428.39;113809;1206;30402;-83
2021/09/16 05:53:10;;;;;;;10.50;7.30;;;;;;;18.66;71.71;96426.90;114076;1211;25821;-84
2021/09/16 05:55:41;;;;;;;10.20;7.70;;;;;;;18.75;71.57;96424.27;114033;1204;29031;-83
2021/09/16 05:58:12;;;;;;;9.30;7.60;;;;;;;18.86;71.23;96424.61;113943;1205;25893;-83
2021/09/16 06:00:43;;;;;;;9.30;6.90;;;;;;;19.01;70.87;96420.84;113757;1212;31037;-82
2021/09/16 06:03:14;;;;;;;10.00;7.20;;;;;;;19.21;70.49;96423.94;114020;1212;23465;-83
2021/09/16 06:05:46;;;;;;;9.40;7.40;;;;;;;19.49;69.88;96423.07;114017;1207;26009;-83
2021/09/16 06:08:17;;;;;;;13.40;7.90;;;;;;;19.86;69.47;96423.39;114013;1208;31040;-82
2021/09/16 06:10:50;;;;;;;9.00;7.30;;;;;;;20.19;68.86;96422.20;113752;1205;62721;-82
2021/09/16 06:13:22;;;;;;;9.70;7.50;;;;;;;20.26;67.82;96416.06;114033;1205;28393;-82
2021/09/16 06:15:53;;;;;;;10.10;6.90;;;;;;;20.19;67.87;96420.97;113898;1205;30454;-82
2021/09/16 06:18:30;;;;;;;8.80;7.10;;;;;;;20.21;68.10;96421.02;114048;1204;25936;-82
2021/09/16 06:21:07;;;;;;;9.20;6.70;;;;;;;20.25;67.67;96420.81;114100;1201;29852;-82
2021/09/16 06:23:43;;;;;;;9.50;7.40;;;;;;;20.31;67.94;96420.60;113904;1209;27039;-82
2021/09/16 06:26:15;;;;;;;9.50;7.10;;;;;;;20.38;67.61;96423.38;114159;1205;29558;-81
2021/09/16 06:28:50;;;;;;;9.40;7.50;;;;;;;20.44;66.71;96424.05;114116;1205;52747;-81
2021/09/16 06:31:22;;;;;;;8.20;6.90;;;;;;;20.52;66.51;96424.84;113945;1205;48496;-82
2021/09/16 06:33:54;;;;;;;11.30;7.20;;;;;;;20.56;66.50;96421.73;114079;1205;30064;-82
2021/09/16 06:36:25;;;;;;;8.30;7.00;;;;;;;20.59;66.64;96423.34;114066;1205;30333;-82
2021/09/16 06:38:56;;;;;;;10.60;6.50;;;;;;;20.61;65.92;96422.86;114093;1200;27031;-82
2021/09/16 06:41:27;;;;;;;9.60;6.80;;;;;;;20.70;66.26;96420.45;114086;1205;26808;-81
2021/09/16 06:43:58;;;;;;;10.10;7.30;;;;;;;20.79;66.26;96420.27;114105;1205;30385;-82
2021/09/16 06:46:31;;;;;;;9.40;7.40;;;;;;;20.86;65.68;96419.90;114057;1205;27807;-82
2021/09/16 06:49:02;;;;;;;8.60;6.40;;;;;;;20.96;65.85;96422.21;114332;1205;26115;-83
2021/09/16 06:51:33;;;;;;;8.60;7.30;;;;;;;21.07;65.56;96424.79;114323;1205;27078;-82
2021/09/16 06:54:05;;;;;;;11.80;6.80;;;;;;;21.12;65.14;96423.98;114313;1207;52658;-82
2021/09/16 06:56:36;;;;;;;8.30;6.60;;;;;;;21.07;65.01;96429.48;114176;1201;76266;-82
2021/09/16 06:59:07;;;;;;;9.20;7.10;;;;;;;21.01;64.50;96426.50;114100;1205;29075;-81
2021/09/16 07:01:38;;;;;;;8.80;7.10;;;;;;;20.99;64.43;96431.39;114104;1204;26261;-81
2021/09/16 07:04:09;;;;;;;10.20;8.10;;;;;;;21.08;64.09;96430.12;114081;1205;32440;-80
2021/09/16 07:06:40;;;;;;;11.80;7.20;;;;;;;21.10;63.85;96437.56;114066;1205;35610;-81
2021/09/16 07:09:11;;;;;;;10.40;7.80;;;;;;;21.10;63.32;96433.79;114154;1204;25166;-81
2021/09/16 07:11:43;;;;;;;9.60;7.30;;;;;;;21.15;63.05;96435.52;114116;1205;28657;-81
2021/09/16 07:14:14;;;;;;;9.80;7.50;;;;;;;21.33;63.72;96437.73;112600;1205;1712864;-81
2021/09/16 07:16:45;;;;;;;11.20;7.60;;;;;;;21.47;62.54;96439.89;114057;1212;29517;-81
2021/09/16 07:19:16;;;;;;;9.60;7.10;;;;;;;21.52;63.08;96442.69;114114;1205;28181;-81
2021/09/16 07:21:47;;;;;;;7.70;6.90;;;;;;;21.56;63.05;96442.17;114086;1205;27570;-82
2021/09/16 07:24:18;;;;;;;8.30;6.40;;;;;;;21.55;62.98;96445.38;114185;1207;28639;-82
2021/09/16 07:26:51;;;;;;;10.00;7.00;;;;;;;21.51;63.10;96445.44;113857;1206;30092;-81
2021/09/16 07:29:23;;;;;;;9.40;7.30;;;;;;;21.48;62.76;96445.14;113870;1209;29915;-81
2021/09/16 07:31:55;;;;;;;9.30;6.70;;;;;;;21.43;62.66;96447.52;114082;1205;26536;-81
2021/09/16 07:34:26;;;;;;;9.20;6.70;;;;;;;21.43;62.59;96448.89;114066;1200;27386;-81
2021/09/16 07:36:58;;;;;;;10.20;7.30;;;;;;;21.50;62.46;96445.50;114092;1204;25101;-81
2021/09/16 07:39:29;;;;;;;9.40;7.10;;;;;;;21.64;61.91;96443.63;113954;1206;28705;-81
2021/09/16 07:42:10;;;;;;;9.50;6.80;;;;;;;21.83;61.19;96443.49;114154;1205;27255;-81
2021/09/16 07:44:41;;;;;;;9.30;7.00;;;;;;;22.02;61.23;96445.50;114110;1198;33542;-82
2021/09/16 07:47:12;;;;;;;12.80;6.90;;;;;;;22.11;60.40;96442.61;114332;1207;28225;-82
2021/09/16 07:49:45;;;;;;;11.00;6.30;;;;;;;22.05;60.37;96444.95;114413;1205;27944;-82
2021/09/16 07:52:17;;;;;;;10.00;7.30;;;;;;;22.01;60.43;96444.39;114436;1209;26916;-82
2021/09/16 07:54:48;;;;;;;8.90;7.40;;;;;;;21.94;60.37;96442.86;114164;1205;32319;-82
2021/09/16 07:57:19;;;;;;;8.60;7.30;;;;;;;22.06;61.37;96444.44;114123;1206;28840;-82
2021/09/16 07:59:50;;;;;;;9.30;7.20;;;;;;;22.28;61.07;96441.39;114198;1205;26824;-82
2021/09/16 08:02:21;;;;;;;9.10;7.10;;;;;;;22.37;60.19;96444.71;114286;1205;28280;-83
2021/09/16 08:04:52;;;;;;;7.40;5.70;;;;;;;22.36;60.33;96445.70;114198;1207;29775;-82
2021/09/16 08:07:23;;;;;;;10.30;7.60;;;;;;;22.39;59.55;96441.42;113926;1205;53198;-83
2021/09/16 08:09:54;;;;;;;11.40;7.90;;;;;;;22.28;59.11;96439.70;114226;1204;30509;-83
2021/09/16 08:12:25;;;;;;;10.50;7.10;;;;;;;22.20;59.58;96445.25;114252;1206;31300;-83
2021/09/16 08:14:56;;;;;;;11.60;7.30;;;;;;;22.17;59.66;96443.80;114316;1205;26869;-82
2021/09/16 08:17:27;;;;;;;12.80;7.80;;;;;;;22.12;59.66;96447.09;114120;1205;31696;-82
2021/09/16 08:19:59;;;;;;;10.10;7.40;;;;;;;22.09;60.30;96443.49;114108;1206;27186;-82
2021/09/16 08:22:30;;;;;;;9.80;7.60;;;;;;;22.05;60.02;96445.78;114087;1207;26729;-83
2021/09/16 08:25:01;;;;;;;15.10;8.60;;;;;;;22.02;60.32;96444.48;114085;1206;25396;-83
2021/09/16 08:27:33;;;;;;;13.10;8.20;;;;;;;21.96;60.27;96445.36;114028;1205;28089;-83
2021/09/16 08:30:06;;;;;;;12.10;7.40;;;;;;;21.98;60.62;96444.23;113829;1205;31018;-83
2021/09/16 08:32:37;;;;;;;11.50;7.70;;;;;;;22.07;61.16;96444.22;113939;1207;36409;-83
2021/09/16 08:35:11;;;;;;;10.00;7.20;;;;;;;22.13;60.72;96443.98;113954;1206;28473;-83
2021/09/16 08:37:42;;;;;;;9.30;7.80;;;;;;;22.12;60.28;96446.27;113968;1200;27966;-83
2021/09/16 08:40:23;;;;;;;9.70;7.10;;;;;;;22.10;60.42;96446.50;113807;1207;27853;-82
2021/09/16 08:42:55;;;;;;;10.30;7.80;;;;;;;22.08;60.02;96449.64;114010;1205;26166;-83
2021/09/16 08:45:26;;;;;;;9.50;7.10;;;;;;;22.05;60.02;96448.57;113916;1205;32266;-83
2021/09/16 08:47:58;;;;;;;9.10;7.40;;;;;;;22.03;60.21;96453.77;114062;1207;25494;-83
2021/09/16 08:50:31;;;;;;;13.70;7.50;;;;;;;22.02;60.07;96453.73;113887;1207;47301;-81
2021/09/16 08:53:02;;;;;;;14.60;7.40;;;;;;;22.01;60.08;96450.26;114009;1204;29363;-82
2021/09/16 08:55:36;;;;;;;9.50;6.90;;;;;;;22.02;60.40;96447.58;114055;1205;27597;-82
2021/09/16 08:58:09;;;;;;;9.70;7.40;;;;;;;22.05;60.36;96447.42;113956;1205;27264;-84
2021/09/16 09:00:41;;;;;;;9.70;7.10;;;;;;;22.13;60.64;96449.21;113931;1205;27065;-82
2021/09/16 09:03:12;;;;;;;9.60;7.10;;;;;;;22.20;60.53;96454.35;113978;1200;29974;-82
2021/09/16 09:05:45;;;;;;;8.70;6.40;;;;;;;22.32;60.55;96453.33;113956;1204;29489;-83
2021/09/16 09:08:22;;;;;;;9.80;7.00;;;;;;;22.44;60.54;96454.41;113742;1200;32889;-82
2021/09/16 09:10:55;;;;;;;9.70;7.70;;;;;;;22.67;60.80;96450.20;113944;1207;26835;-83
2021/09/16 09:13:41;;;;;;;10.70;7.70;;;;;;;22.89;60.82;96449.35;113931;1205;29120;-83
2021/09/16 09:16:13;;;;;;;10.90;7.40;;;;;;;23.12;60.72;96451.95;113913;1200;38495;-82
2021/09/16 09:18:46;;;;;;;11.60;7.50;;;;;;;23.28;60.69;96455.05;113948;1205;28365;-82
2021/09/16 09:21:19;;;;;;;13.30;8.30;;;;;;;23.39;60.59;96455.99;113925;1205;27856;-82
2021/09/16 09:23:55;;;;;;;13.80;7.80;;;;;;;23.44;60.56;96455.05;113871;1207;47839;-83
2021/09/16 09:26:30;;;;;;;12.20;8.30;;;;;;;23.45;60.80;96452.35;113917;1205;29605;-83
2021/09/16 09:29:16;;;;;;;12.10;8.50;;;;;;;23.47;61.06;96448.35;114045;1205;28444;-82
2021/09/16 09:32:01;;;;;;;11.30;7.70;;;;;;;23.45;61.14;96449.19;113952;1207;38607;-82
2021/09/16 09:34:37;;;;;;;11.60;8.40;;;;;;;23.43;61.35;96447.77;113983;1205;26204;-83
2021/09/16 09:37:14;;;;;;;13.60;9.50;;;;;;;23.48;61.42;96449.30;113900;1205;31794;-84
2021/09/16 09:39:48;;;;;;;12.90;10.00;;;;;;;23.48;61.05;96452.85;113909;1207;28123;-84
2021/09/16 09:42:26;;;;;;;15.00;10.70;;;;;;;23.42;61.02;96451.70;114000;1205;39811;-84
2021/09/16 09:45:07;;;;;;;17.30;11.50;;;;;;;23.31;60.99;96450.54;114111;1205;27951;-84
2021/09/16 09:47:38;;;;;;;;;;;;;;;23.24;61.22;96448.34;114046;1206;37500;-84
2021/09/16 09:50:20;;;;;;;14.70;10.10;;;;;;;23.19;61.71;96448.49;114004;1200;38710;-84
2021/09/16 09:52:53;;;;;;;16.60;11.00;;;;;;;23.18;61.78;96449.41;114040;1197;131587;-84
2021/09/16 09:55:27;;;;;;;14.80;10.20;;;;;;;23.22;61.88;96450.77;113919;1211;31330;-83
2021/09/16 09:58:05;;;;;;;15.90;9.90;;;;;;;23.30;62.31;96449.52;113873;1207;30465;-84
2021/09/16 10:00:37;;;;;;;10.40;8.80;;;;;;;23.40;61.79;96444.58;113902;1200;45855;-83
2021/09/16 10:03:09;;;;;;;12.80;9.40;;;;;;;23.54;61.70;96446.30;113967;1207;29415;-84
2021/09/16 10:05:43;;;;;;;11.70;9.60;;;;;;;23.74;61.47;96447.83;113913;1204;28534;-83
2021/09/16 10:08:15;;;;;;;13.60;10.00;;;;;;;23.93;61.35;96444.20;114020;1206;29092;-83
2021/09/16 10:10:51;;;;;;;10.10;8.00;;;;;;;24.12;61.21;96449.45;113923;1212;26498;-84
2021/09/16 10:13:22;;;;;;;10.50;7.70;;;;;;;24.18;60.22;96444.79;114041;1206;27397;-83
2021/09/16 10:15:57;;;;;;;10.00;7.90;;;;;;;24.16;59.66;96445.47;113867;1205;57075;-82
2021/09/16 10:18:28;;;;;;;9.60;7.50;;;;;;;24.30;60.16;96441.14;113916;1205;28839;-82
2021/09/16 10:21:02;;;;;;;9.70;7.70;;;;;;;24.64;60.87;96439.64;113995;1205;27865;-82
2021/09/16 10:23:33;;;;;;;10.40;8.30;;;;;;;25.03;60.91;96432.46;113973;1212;32828;-82
2021/09/16 10:26:05;;;;;;;10.10;8.10;;;;;;;25.19;59.35;96438.10;114090;1205;29808;-82
2021/09/16 10:28:40;;;;;;;12.70;8.00;;;;;;;25.10;59.06;96440.52;114092;1204;29153;-82
2021/09/16 10:31:24;;;;;;;10.70;7.80;;;;;;;25.07;58.27;96438.86;113993;1204;27623;-83
2021/09/16 10:33:56;;;;;;;9.00;7.90;;;;;;;25.08;57.70;96439.27;114073;1205;28897;-83
2021/09/16 10:36:27;;;;;;;9.70;7.60;;;;;;;25.10;57.72;96440.67;114110;1205;27888;-84
2021/09/16 10:38:58;;;;;;;11.80;7.90;;;;;;;24.98;57.97;96435.67;113964;1204;28255;-84
2021/09/16 10:41:32;;;;;;;7.50;6.70;;;;;;;24.85;58.25;96435.64;113936;1206;29031;-88
2021/09/16 10:44:28;;;;;;;9.10;7.00;;;;;;;24.78;58.13;96430.56;114019;1205;42489;-89
2021/09/16 10:47:14;;;;;;;9.10;7.50;;;;;;;24.76;58.39;96429.74;113895;1205;26941;-89
2021/09/16 10:49:47;;;;;;;13.20;8.30;;;;;;;24.67;58.01;96428.13;113865;1205;29542;-88
2021/09/16 10:52:24;;;;;;;11.40;7.90;;;;;;;24.55;58.33;96425.00;113952;1205;28718;-88
2021/09/16 10:54:57;;;;;;;10.10;8.40;;;;;;;24.58;58.68;96417.51;113859;1206;29468;-83
2021/09/16 10:57:38;;;;;;;9.90;7.90;;;;;;;24.69;58.94;96412.27;113856;1205;29518;-84
2021/09/16 11:00:39;;;;;;;10.80;8.30;;;;;;;24.98;59.15;96412.20;113929;1206;27209;-84
2021/09/16 11:03:15;;;;;;;9.60;7.10;;;;;;;25.14;59.37;96408.92;113769;1205;26480;-84
2021/09/16 11:05:53;;;;;;;9.60;7.80;;;;;;;25.25;59.29;96412.88;113823;1205;28637;-84
2021/09/16 11:08:45;;;;;;;10.50;8.00;;;;;;;25.36;59.35;96411.92;113963;1205;28855;-84
2021/09/16 11:11:16;;;;;;;9.60;7.50;;;;;;;25.43;59.19;96410.41;113967;1205;27294;-84
2021/09/16 11:13:57;;;;;;;10.10;7.80;;;;;;;25.46;59.11;96407.24;114158;1205;31492;-84
2021/09/16 11:16:30;;;;;;;10.20;7.70;;;;;;;25.52;58.96;96402.95;114165;1205;29247;-83
2021/09/16 11:19:08;;;;;;;10.40;7.50;;;;;;;25.52;58.78;96404.81;114065;1205;28352;-84
2021/09/16 11:21:40;;;;;;;12.30;8.40;;;;;;;25.48;58.91;96402.53;114019;1202;28471;-84
2021/09/16 11:24:11;;;;;;;10.60;7.60;;;;;;;25.40;58.77;96399.62;113951;1205;25854;-84
2021/09/16 11:26:45;;;;;;;11.60;8.10;;;;;;;25.32;58.70;96399.27;113962;1205;28892;-85
2021/09/16 11:29:16;;;;;;;9.90;7.90;;;;;;;25.30;59.02;96392.81;113737;1205;28312;-83
2021/09/16 11:31:47;;;;;;;9.70;7.20;;;;;;;25.41;59.22;96392.19;113733;1206;28397;-85
2021/09/16 11:34:20;;;;;;;10.80;8.40;;;;;;;25.69;59.09;96390.63;113867;1212;42377;-85
2021/09/16 11:37:18;;;;;;;11.20;7.70;;;;;;;25.84;58.79;96384.95;114042;1212;32661;-86
2021/09/16 11:40:00;;;;;;;10.50;8.00;;;;;;;26.10;59.20;96382.31;114159;1205;26523;-85
2021/09/16 11:42:34;;;;;;;9.20;8.10;;;;;;;26.19;57.84;96382.73;114232;1205;60191;-85